Portada
METAR-TAF:

METAR-TAF

Aeroports :

Vientiane, Laos

latitud: 17-57N, longitud: 102-34E, altitud: 171 m

Observació

L'informe es va fer fa 19 minuts, a les 00:30 UTC
Vent 4 kt del Est
Temperatura 27°C
Humitat 94%
Pressió 1010 hPa
Visibilitat: 5000 m
Núvols disperses a una alçada de 1600 ft
Núvols disperses a una alçada de 5000 ft
boirina

METAR: VLVT 240030Z 09004KT 5000 BR SCT016 SCT050 27/26 Q1010 NOSIG

Hora: 07:49 (00:49 UTC)

Pronòstic

L'informe es va fer fa 1 hora i 49 minuts, a les 23:00 UTC
Pronòstic vàlid del 24 a les 00 UTC al 24 a les 24 UTC
Vent 4 kt del Sud-Oest
Visibilitat: 8000 m
Escasses núvols a una alçada de 1600 ft
Núvols disperses a una alçada de 5000 ft
Núvols disperses a una alçada de 10000 ft

TAF: VLVT 232300Z 2400/2424 22004KT 8000 FEW016 SCT050 SCT100

Observacions i pronòstics meteorològics de més de 4000 aeroports (METAR i TAF).

Les estacions disponibles són els punts grocs i vermells al mapa.

Posi el ratolí al punt desitjat per veure el nom de l'estació.

Feu clic per veure les observacions i els pronòstics meteorològics.

Per canviar el mapa: feu clic els botons verds amb una creu de color negre per apropar; al botó verd amb un guió per allunyar la imatge; o en les fletxes verdes per a mapes adjacents.


METAR-TAF: